createdAt,value
2023-01-25T00:04:24.647Z,11.27
2023-01-25T00:09:40.031Z,11.55
2023-01-25T00:14:55.682Z,5.45
2023-01-25T00:20:10.567Z,12.05
2023-01-25T00:25:25.638Z,7.88
2023-01-25T00:30:40.700Z,5.78
2023-01-25T00:35:55.627Z,4.43
2023-01-25T00:41:10.642Z,6.03
2023-01-25T00:46:25.636Z,3.15
2023-01-25T00:51:40.659Z,4.15
2023-01-25T00:56:55.703Z,3.53
2023-01-25T01:02:10.621Z,4.70
2023-01-25T01:07:26.662Z,5.28
2023-01-25T01:12:42.011Z,4.72
2023-01-25T01:17:57.679Z,4.78
2023-01-25T01:23:12.640Z,13.25
2023-01-25T01:28:27.602Z,10.38
2023-01-25T01:33:43.005Z,7.32
2023-01-25T01:38:58.923Z,7.85
2023-01-25T01:44:14.619Z,5.72
2023-01-25T01:49:34.696Z,11.00
2023-01-25T01:54:56.598Z,9.05
2023-01-25T02:00:11.666Z,5.65
2023-01-25T02:05:26.703Z,6.35
2023-01-25T02:10:41.582Z,6.05
2023-01-25T02:15:56.503Z,5.60
2023-01-25T02:21:11.961Z,4.90
2023-01-25T02:26:27.604Z,14.95
2023-01-25T02:31:42.755Z,7.97
2023-01-25T02:36:57.627Z,8.60
2023-01-25T02:42:12.624Z,5.38
2023-01-25T02:47:27.633Z,4.10
2023-01-25T02:52:43.608Z,4.43
2023-01-25T02:57:58.654Z,3.67
2023-01-25T03:03:15.921Z,3.58
2023-01-25T03:08:31.464Z,20.15
2023-01-25T03:13:47.035Z,14.43
2023-01-25T03:19:03.631Z,6.47
2023-01-25T03:24:19.704Z,3.60
2023-01-25T03:29:34.670Z,5.30
2023-01-25T03:34:54.618Z,3.97
2023-01-25T03:40:10.605Z,7.30
2023-01-25T03:45:31.673Z,4.50
2023-01-25T03:50:47.615Z,6.90
2023-01-25T03:56:02.631Z,4.97
2023-01-25T04:01:18.667Z,4.32
2023-01-25T04:06:34.629Z,6.53
2023-01-25T04:11:50.047Z,5.50
2023-01-25T04:17:05.395Z,4.20
2023-01-25T04:22:28.668Z,6.45
2023-01-25T04:27:44.419Z,6.95
2023-01-25T04:32:59.718Z,7.53
2023-01-25T04:38:14.659Z,25.17
2023-01-25T04:43:32.957Z,12.40
2023-01-25T04:48:51.676Z,15.60
2023-01-25T04:54:07.689Z,17.15
2023-01-25T04:59:22.403Z,10.82
2023-01-25T05:04:37.598Z,4.95
2023-01-25T05:09:52.634Z,7.40
2023-01-25T05:15:08.958Z,4.95
2023-01-25T05:20:24.991Z,3.53
2023-01-25T05:25:41.618Z,7.65
2023-01-25T05:31:00.681Z,5.55
2023-01-25T05:36:16.623Z,4.18
2023-01-25T05:41:31.632Z,6.53
2023-01-25T05:46:46.649Z,3.53
2023-01-25T05:52:01.655Z,5.53
2023-01-25T05:57:16.683Z,4.97
2023-01-25T06:02:31.798Z,3.83
2023-01-25T06:07:46.631Z,5.65
2023-01-25T06:13:04.884Z,5.22
2023-01-25T06:18:21.669Z,4.97
2023-01-25T06:24:05.713Z,3.17
2023-01-25T06:29:20.750Z,3.83
2023-01-25T06:34:35.903Z,7.05
2023-01-25T06:39:58.705Z,4.18
2023-01-25T06:45:14.014Z,4.20
2023-01-25T06:50:29.652Z,4.93
2023-01-25T06:55:44.676Z,5.20
2023-01-25T07:00:59.702Z,5.40
2023-01-25T07:06:14.650Z,6.38
2023-01-25T07:11:29.403Z,8.05
2023-01-25T07:16:44.680Z,4.15
2023-01-25T07:21:59.381Z,4.35
2023-01-25T07:27:14.997Z,4.60
2023-01-25T07:32:30.696Z,4.22
2023-01-25T07:37:45.657Z,6.30
2023-01-25T07:43:00.671Z,4.95
2023-01-25T07:48:17.983Z,5.85
2023-01-25T07:53:33.671Z,4.75
2023-01-25T07:58:48.684Z,5.55
2023-01-25T08:04:03.691Z,6.32
2023-01-25T08:09:18.665Z,6.35
2023-01-25T08:14:33.651Z,7.13
2023-01-25T08:19:49.016Z,7.70
2023-01-25T08:25:04.461Z,6.47
2023-01-25T08:30:19.648Z,6.55
2023-01-25T08:35:34.659Z,7.20
2023-01-25T08:40:49.660Z,5.93
2023-01-25T08:46:04.990Z,5.03
2023-01-25T08:51:20.662Z,6.10
2023-01-25T08:56:36.041Z,6.30
2023-01-25T09:01:51.662Z,4.70
2023-01-25T09:07:06.961Z,5.50
2023-01-25T09:12:22.761Z,6.40
2023-01-25T09:17:37.636Z,5.13
2023-01-25T09:22:52.989Z,5.60
2023-01-25T09:28:09.020Z,5.63
2023-01-25T09:33:25.436Z,5.38
2023-01-25T09:38:40.735Z,5.53
2023-01-25T09:43:56.780Z,7.68
2023-01-25T09:49:12.564Z,6.15
2023-01-25T09:54:28.519Z,6.82
2023-01-25T09:59:44.659Z,7.38
2023-01-25T10:04:59.999Z,8.55
2023-01-25T10:10:15.731Z,7.25
2023-01-25T10:15:32.041Z,7.35
2023-01-25T10:20:47.989Z,9.55
2023-01-25T10:26:03.720Z,8.27
2023-01-25T10:31:19.157Z,7.93
2023-01-25T10:36:36.744Z,6.55
2023-01-25T10:41:52.677Z,6.90
2023-01-25T10:47:07.945Z,7.53
2023-01-25T10:52:23.696Z,6.15
2023-01-25T10:57:38.723Z,5.60
2023-01-25T11:02:53.506Z,6.18
2023-01-25T11:08:08.668Z,6.03
2023-01-25T11:13:23.702Z,6.10
2023-01-25T11:18:38.718Z,6.80
2023-01-25T11:23:53.701Z,6.07
2023-01-25T11:29:08.712Z,5.93
2023-01-25T11:34:23.664Z,5.78
2023-01-25T11:39:38.714Z,6.18
2023-01-25T11:44:53.776Z,6.13
2023-01-25T11:50:09.160Z,8.88
2023-01-25T11:55:24.679Z,9.13
2023-01-25T12:00:39.585Z,7.13
2023-01-25T12:05:54.662Z,74.28
2023-01-25T12:11:09.722Z,56.92
2023-01-25T12:16:24.466Z,64.47
2023-01-25T12:21:40.020Z,71.30
2023-01-25T12:26:55.992Z,46.50
2023-01-25T12:32:11.675Z,59.53
2023-01-25T12:37:26.733Z,53.20
2023-01-25T12:42:41.713Z,55.78
2023-01-25T12:47:56.437Z,54.35
2023-01-25T12:53:11.741Z,51.92
2023-01-25T12:58:37.330Z,45.15
2023-01-25T13:03:52.728Z,43.47
2023-01-25T13:09:07.809Z,40.10
2023-01-25T13:14:22.721Z,37.35
2023-01-25T13:19:38.915Z,40.00
2023-01-25T13:24:54.671Z,29.88
2023-01-25T13:30:10.052Z,37.03
2023-01-25T13:35:26.041Z,31.75
2023-01-25T13:40:41.673Z,36.67
2023-01-25T13:45:56.730Z,31.55
2023-01-25T13:51:12.039Z,28.75
2023-01-25T13:56:27.674Z,30.92
2023-01-25T14:01:42.741Z,28.85
2023-01-25T14:06:58.054Z,23.42
2023-01-25T14:12:13.650Z,28.27
2023-01-25T14:17:28.683Z,27.15
2023-01-25T14:22:43.683Z,21.85
2023-01-25T14:27:59.047Z,27.80
2023-01-25T14:33:14.657Z,18.58
2023-01-25T14:38:29.507Z,18.85
2023-01-25T14:43:44.883Z,19.27
2023-01-25T14:49:00.636Z,20.75
2023-01-25T14:54:15.676Z,18.50
2023-01-25T14:59:30.677Z,17.50
2023-01-25T15:04:45.689Z,18.65
2023-01-25T15:10:00.705Z,19.48
2023-01-25T15:15:15.726Z,20.23
2023-01-25T15:20:30.525Z,20.55
2023-01-25T15:25:45.712Z,18.17
2023-01-25T15:31:00.765Z,17.50
2023-01-25T15:36:15.698Z,17.05
2023-01-25T15:41:30.667Z,16.55
2023-01-25T15:46:45.735Z,17.67
2023-01-25T15:52:00.735Z,16.38
2023-01-25T15:57:15.717Z,17.27
2023-01-25T16:02:31.075Z,17.70
2023-01-25T16:07:46.704Z,18.15
2023-01-25T16:13:01.688Z,14.20
2023-01-25T16:18:16.744Z,15.32
2023-01-25T16:23:31.679Z,11.80
2023-01-25T16:28:46.689Z,13.70
2023-01-25T16:34:02.079Z,12.73
2023-01-25T16:39:16.705Z,13.40
2023-01-25T16:44:31.674Z,11.82
2023-01-25T16:49:46.704Z,12.07
2023-01-25T16:55:01.507Z,13.15
2023-01-25T17:00:16.412Z,11.13
2023-01-25T17:05:34.086Z,12.18
2023-01-25T17:10:49.720Z,12.43
2023-01-25T17:16:04.760Z,12.88
2023-01-25T17:21:19.724Z,13.02
2023-01-25T17:26:35.033Z,12.65
2023-01-25T17:31:51.208Z,15.02
2023-01-25T17:37:06.698Z,15.60
2023-01-25T17:42:22.068Z,13.75
2023-01-25T17:47:38.213Z,14.30
2023-01-25T17:52:54.089Z,12.63
2023-01-25T17:58:09.731Z,11.15
2023-01-25T18:03:24.777Z,11.73
2023-01-25T18:08:40.067Z,9.70
2023-01-25T18:13:55.759Z,9.20
2023-01-25T18:19:10.695Z,11.18
2023-01-25T18:24:26.475Z,9.05
2023-01-25T18:29:42.027Z,9.45
2023-01-25T18:34:57.680Z,9.98
2023-01-25T18:40:13.691Z,8.30
2023-01-25T18:45:28.694Z,8.32
2023-01-25T18:50:43.735Z,9.80
2023-01-25T18:55:58.699Z,9.00
2023-01-25T19:01:13.679Z,10.02
2023-01-25T19:06:29.115Z,6.82
2023-01-25T19:11:44.440Z,9.90
2023-01-25T19:16:59.711Z,8.13
2023-01-25T19:22:14.491Z,8.80
2023-01-25T19:27:29.728Z,8.52
2023-01-25T19:32:45.023Z,8.60
2023-01-25T19:38:01.054Z,11.00
2023-01-25T19:43:16.743Z,10.27
2023-01-25T19:48:31.478Z,8.95
2023-01-25T19:53:46.779Z,10.43
2023-01-25T19:59:01.777Z,11.55
2023-01-25T20:04:16.491Z,11.60
2023-01-25T20:09:31.748Z,10.55
2023-01-25T20:14:46.890Z,10.05
2023-01-25T20:20:02.091Z,11.13
2023-01-25T20:25:18.079Z,10.50
2023-01-25T20:30:33.702Z,30.92
2023-01-25T20:35:48.762Z,22.13
2023-01-25T20:41:04.174Z,26.77
2023-01-25T20:46:20.138Z,26.20
2023-01-25T20:51:35.742Z,23.55
2023-01-25T20:56:51.038Z,25.00
2023-01-25T21:02:06.815Z,35.70
2023-01-25T21:07:22.096Z,28.20
2023-01-25T21:12:38.078Z,26.38
2023-01-25T21:17:53.499Z,28.35
2023-01-25T21:23:08.745Z,26.95
2023-01-25T21:28:24.022Z,30.20
2023-01-25T21:33:40.006Z,31.83
2023-01-25T21:38:56.015Z,32.67
2023-01-25T21:44:11.739Z,33.65
2023-01-25T21:49:27.071Z,37.28
2023-01-25T21:54:42.705Z,34.50
2023-01-25T21:59:57.714Z,36.97
2023-01-25T22:05:12.743Z,34.85
2023-01-25T22:10:28.024Z,36.97
2023-01-25T22:15:44.033Z,32.63
2023-01-25T22:20:59.736Z,48.33
2023-01-25T22:26:15.025Z,39.97
2023-01-25T22:31:30.771Z,34.38
2023-01-25T22:36:45.790Z,37.40
2023-01-25T22:42:00.770Z,37.83
2023-01-25T22:47:15.695Z,40.05
2023-01-25T22:52:30.756Z,33.78
2023-01-25T22:57:45.750Z,33.17
2023-01-25T23:03:00.707Z,45.38
2023-01-25T23:08:16.092Z,38.67
2023-01-25T23:13:31.511Z,31.83
2023-01-25T23:18:46.759Z,38.58
2023-01-25T23:24:01.824Z,33.90
2023-01-25T23:29:17.016Z,34.63
2023-01-25T23:34:32.738Z,32.97
2023-01-25T23:39:47.729Z,37.92
2023-01-25T23:45:02.686Z,32.47
2023-01-25T23:50:17.721Z,39.72
2023-01-25T23:55:33.048Z,33.08
